Time;durP1;ratioP1;P1;durP2;ratioP2;P2;SDS_P1;SDS_P2;PMS_P1;PMS_P2;Temp;Humidity;BMP_temperature;BMP_pressure;BME280_temperature;BME280_humidity;BME280_pressure;Samples;Min_cycle;Max_cycle;Signal;HPM_P1;HPM_P2
2022/04/18 00:02:25;;;;;;;5.97;4.47;;;;;;;0.80;nan;101725.84;5056191;28;20029;-76
2022/04/18 00:04:52;;;;;;;7.30;5.50;;;;;;;0.77;nan;101721.41;5045563;28;20036;-76
2022/04/18 00:07:19;;;;;;;7.87;5.07;;;;;;;0.73;nan;101722.13;5041888;28;20036;-75
2022/04/18 00:09:46;;;;;;;8.00;5.23;;;;;;;0.59;nan;101715.53;5040091;28;20506;-75
2022/04/18 00:12:14;;;;;;;8.93;5.70;;;;;;;0.52;nan;101717.03;5038052;28;20699;-76
2022/04/18 00:14:41;;;;;;;9.03;4.87;;;;;;;0.49;nan;101711.69;5021708;28;20053;-75
2022/04/18 00:17:09;;;;;;;9.07;5.30;;;;;;;0.46;nan;101718.50;5044086;28;20047;-76
2022/04/18 00:19:37;;;;;;;9.07;5.03;;;;;;;0.53;nan;101710.13;5039630;28;20719;-76
2022/04/18 00:22:05;;;;;;;10.53;5.40;;;;;;;0.48;nan;101712.53;5031721;28;20041;-76
2022/04/18 00:24:32;;;;;;;8.37;5.53;;;;;;;0.43;nan;101708.88;5043552;28;20033;-76
2022/04/18 00:27:01;;;;;;;8.83;5.23;;;;;;;0.37;nan;101719.03;5040618;28;20041;-76
2022/04/18 00:29:28;;;;;;;8.53;5.50;;;;;;;0.32;nan;101711.91;5024565;28;20504;-76
2022/04/18 00:31:55;;;;;;;10.90;6.40;;;;;;;0.24;nan;101714.19;5041577;28;20033;-76
2022/04/18 00:34:25;;;;;;;10.80;6.63;;;;;;;0.26;nan;101709.97;5034998;28;20744;-76
2022/04/18 00:36:52;;;;;;;7.80;5.67;;;;;;;0.20;nan;101710.59;5045244;28;20037;-76
2022/04/18 00:39:21;;;;;;;9.40;5.60;;;;;;;0.12;nan;101701.63;5038905;28;20502;-76
2022/04/18 00:41:48;;;;;;;11.10;6.70;;;;;;;0.12;nan;101714.63;5047355;28;20062;-76
2022/04/18 00:44:15;;;;;;;9.30;5.40;;;;;;;0.13;nan;101708.59;5048422;28;20044;-76
2022/04/18 00:46:42;;;;;;;10.90;6.10;;;;;;;0.13;nan;101707.72;5021188;28;20049;-76
2022/04/18 00:49:09;;;;;;;10.53;6.17;;;;;;;0.04;nan;101695.25;5038975;28;20037;-76
2022/04/18 00:51:36;;;;;;;9.87;5.83;;;;;;;-0.08;nan;101692.19;5046419;28;20033;-76
2022/04/18 00:54:03;;;;;;;9.03;6.17;;;;;;;-0.12;nan;101688.56;5047873;28;20459;-76
2022/04/18 00:56:30;;;;;;;8.33;5.80;;;;;;;-0.22;nan;101694.22;5045862;28;20168;-76
2022/04/18 00:58:58;;;;;;;11.83;6.20;;;;;;;-0.29;nan;101690.50;5053012;28;20037;-76
2022/04/18 01:01:25;;;;;;;8.80;5.63;;;;;;;-0.26;nan;101686.25;5060349;28;20036;-76
2022/04/18 01:03:52;;;;;;;9.33;6.27;;;;;;;-0.20;nan;101689.97;5047152;28;20040;-76
2022/04/18 01:06:19;;;;;;;10.33;5.73;;;;;;;-0.08;nan;101681.81;5024859;28;20037;-76
2022/04/18 01:08:48;;;;;;;9.97;5.67;;;;;;;-0.11;nan;101682.56;5033222;28;20051;-76
2022/04/18 01:11:15;;;;;;;9.20;5.50;;;;;;;-0.16;nan;101688.41;5027884;28;20033;-76
2022/04/18 01:13:44;;;;;;;10.63;6.90;;;;;;;-0.21;nan;101688.22;5035913;28;20120;-76
2022/04/18 01:16:12;;;;;;;12.20;6.53;;;;;;;-0.23;nan;101681.19;5042160;28;20037;-76
2022/04/18 01:18:39;;;;;;;9.33;6.20;;;;;;;-0.32;nan;101681.72;5037674;28;20040;-76
2022/04/18 01:21:10;;;;;;;10.13;6.23;;;;;;;-0.35;nan;101678.97;5045804;28;20033;-76
2022/04/18 01:23:37;;;;;;;8.47;5.67;;;;;;;-0.45;nan;101676.84;5039198;28;20472;-76
2022/04/18 01:28:58;;;;;;;7.83;5.63;;;;;;;-0.46;nan;101681.16;5045216;28;20036;-76
2022/04/18 01:31:30;;;;;;;9.47;5.73;;;;;;;-0.47;nan;101675.91;5041442;28;20037;-76
2022/04/18 01:33:58;;;;;;;10.23;6.10;;;;;;;-0.45;nan;101671.66;5040732;28;20042;-76
2022/04/18 01:36:26;;;;;;;9.83;6.23;;;;;;;-0.49;nan;101662.88;5030718;28;20045;-76
2022/04/18 01:38:54;;;;;;;10.43;6.83;;;;;;;-0.52;nan;101659.25;5040886;28;20037;-76
2022/04/18 01:41:21;;;;;;;9.63;6.03;;;;;;;-0.50;nan;101665.41;5045318;28;20045;-76
2022/04/18 01:43:48;;;;;;;7.63;5.80;;;;;;;-0.57;nan;101656.47;5041680;28;20041;-76
2022/04/18 01:46:16;;;;;;;12.10;5.93;;;;;;;-0.63;nan;101656.22;5047349;28;20039;-76
2022/04/18 01:48:44;;;;;;;11.33;6.20;;;;;;;-0.61;nan;101651.97;5040901;28;20042;-76
2022/04/18 01:51:11;;;;;;;8.90;5.90;;;;;;;-0.63;nan;101648.44;5027776;28;20445;-76
2022/04/18 01:53:38;;;;;;;9.70;6.13;;;;;;;-0.69;nan;101648.19;5045523;28;20033;-76
2022/04/18 01:56:05;;;;;;;8.87;5.50;;;;;;;-0.73;nan;101644.59;5046448;28;20509;-75
2022/04/18 01:58:32;;;;;;;10.97;6.87;;;;;;;-0.77;nan;101642.69;5035870;28;20482;-76
2022/04/18 02:00:59;;;;;;;9.37;5.80;;;;;;;-0.83;nan;101650.22;5029104;28;20492;-76
2022/04/18 02:03:26;;;;;;;8.83;6.40;;;;;;;-0.84;nan;101643.28;5060418;28;20047;-76
2022/04/18 02:05:55;;;;;;;10.47;5.73;;;;;;;-0.89;nan;101640.47;5047734;28;20033;-76
2022/04/18 02:08:23;;;;;;;10.37;6.60;;;;;;;-0.93;nan;101637.69;5042883;28;20043;-76
2022/04/18 02:10:50;;;;;;;8.27;5.20;;;;;;;-0.94;nan;101631.59;5048526;28;20049;-76
2022/04/18 02:13:17;;;;;;;8.37;5.93;;;;;;;-0.92;nan;101634.28;5023968;28;20033;-76
2022/04/18 02:15:44;;;;;;;9.37;6.23;;;;;;;-0.98;nan;101634.03;5039103;28;20041;-76
2022/04/18 02:18:11;;;;;;;8.50;5.27;;;;;;;-1.01;nan;101637.38;5042276;28;20494;-76
2022/04/18 02:20:38;;;;;;;10.83;5.80;;;;;;;-1.02;nan;101632.09;5043444;28;20051;-76
2022/04/18 02:23:06;;;;;;;10.20;7.00;;;;;;;-1.07;nan;101621.56;5046089;28;20039;-76
2022/04/18 02:25:33;;;;;;;11.50;5.60;;;;;;;-1.13;nan;101619.59;5042096;28;20067;-76
2022/04/18 02:28:00;;;;;;;9.83;5.70;;;;;;;-1.15;nan;101623.81;5041802;28;20041;-76
2022/04/18 02:30:27;;;;;;;11.67;6.43;;;;;;;-1.20;nan;101627.03;5042364;28;20418;-76
2022/04/18 02:32:56;;;;;;;9.73;6.23;;;;;;;-1.16;nan;101629.84;5038557;28;20067;-76
2022/04/18 02:35:26;;;;;;;9.57;5.67;;;;;;;-1.20;nan;101627.91;5043166;28;20040;-76
2022/04/18 02:37:53;;;;;;;10.50;5.87;;;;;;;-1.20;nan;101630.50;5048160;28;20125;-77
2022/04/18 02:40:21;;;;;;;11.17;6.07;;;;;;;-1.23;nan;101630.41;5024954;28;20045;-76
2022/04/18 02:42:49;;;;;;;11.67;5.93;;;;;;;-1.24;nan;101626.03;5041982;28;20033;-76
2022/04/18 02:45:20;;;;;;;9.30;5.57;;;;;;;-1.26;nan;101626.75;5029934;28;20039;-77
2022/04/18 02:47:49;;;;;;;9.83;6.07;;;;;;;-1.27;nan;101628.47;5040035;28;20038;-76
2022/04/18 02:50:16;;;;;;;12.73;6.93;;;;;;;-1.28;nan;101628.41;5025162;28;20782;-76
2022/04/18 02:52:45;;;;;;;9.50;6.07;;;;;;;-1.29;nan;101621.47;5047746;28;20041;-76
2022/04/18 02:55:12;;;;;;;9.20;5.97;;;;;;;-1.33;nan;101623.06;5044825;28;20407;-76
2022/04/18 02:57:39;;;;;;;10.83;6.83;;;;;;;-1.35;nan;101619.47;5045411;28;20433;-77
2022/04/18 03:00:09;;;;;;;9.73;6.47;;;;;;;-1.37;nan;101617.66;5009065;28;20044;-77
2022/04/18 03:02:36;;;;;;;9.37;6.37;;;;;;;-1.41;nan;101608.88;5033549;28;20029;-76
2022/04/18 03:05:05;;;;;;;9.97;6.10;;;;;;;-1.42;nan;101608.00;5027477;28;20045;-76
2022/04/18 03:07:35;;;;;;;9.13;6.40;;;;;;;-1.40;nan;101607.16;5021363;28;20500;-76
2022/04/18 03:10:03;;;;;;;10.93;5.93;;;;;;;-1.40;nan;101607.16;5042953;28;20045;-76
2022/04/18 03:12:31;;;;;;;8.77;5.90;;;;;;;-1.42;nan;101604.50;5037135;28;20044;-77
2022/04/18 03:15:03;;;;;;;10.80;6.00;;;;;;;-1.42;nan;101613.19;5026129;28;20043;-76
2022/04/18 03:17:31;;;;;;;11.33;6.30;;;;;;;-1.46;nan;101608.66;5030234;28;20039;-76
2022/04/18 03:19:57;;;;;;;9.83;6.43;;;;;;;-1.45;nan;101610.44;5046377;28;20033;-76
2022/04/18 03:22:31;;;;;;;9.43;6.37;;;;;;;-1.41;nan;101611.47;5044563;28;20045;-76
2022/04/18 03:24:58;;;;;;;10.15;6.25;;;;;;;-1.42;nan;101614.88;5039595;28;20043;-76
2022/04/18 03:27:25;;;;;;;9.53;6.63;;;;;;;-1.50;nan;101613.66;5032259;28;20041;-76
2022/04/18 03:29:52;;;;;;;10.50;6.00;;;;;;;-1.60;nan;101614.06;5041695;28;20067;-76
2022/04/18 03:32:22;;;;;;;10.80;6.70;;;;;;;-1.70;nan;101610.19;5045953;28;20025;-76
2022/04/18 03:34:49;;;;;;;10.97;6.30;;;;;;;-1.64;nan;101607.88;5039284;28;20071;-76
2022/04/18 03:40:02;;;;;;;11.40;6.73;;;;;;;-1.60;nan;101599.38;5035573;28;20494;-76
2022/04/18 03:42:29;;;;;;;11.83;6.67;;;;;;;-1.71;nan;101617.06;5047545;28;20033;-76
2022/04/18 03:45:02;;;;;;;10.83;6.83;;;;;;;-1.66;nan;101613.81;5040472;28;20044;-76
2022/04/18 03:47:29;;;;;;;11.13;7.20;;;;;;;-1.69;nan;101609.34;5045036;28;20039;-76
2022/04/18 03:49:57;;;;;;;9.23;5.83;;;;;;;-1.75;nan;101611.69;5026624;28;20048;-76
2022/04/18 03:52:24;;;;;;;7.47;5.30;;;;;;;-1.76;nan;101612.53;5019486;28;20055;-77
2022/04/18 03:54:51;;;;;;;8.00;5.43;;;;;;;-1.79;nan;101595.13;5040196;28;20037;-76
2022/04/18 03:57:18;;;;;;;9.53;5.90;;;;;;;-1.83;nan;101601.00;5020482;28;20033;-76
2022/04/18 03:59:45;;;;;;;10.73;5.67;;;;;;;-1.78;nan;101598.59;5034320;28;20041;-76
2022/04/18 04:02:13;;;;;;;10.13;6.03;;;;;;;-1.77;nan;101593.47;5043508;28;20037;-77
2022/04/18 04:04:41;;;;;;;11.07;6.83;;;;;;;-1.83;nan;101587.16;5054038;28;20504;-76
2022/04/18 04:07:08;;;;;;;11.03;6.23;;;;;;;-1.78;nan;101585.63;5048699;28;20401;-77
2022/04/18 04:09:36;;;;;;;11.17;6.47;;;;;;;-1.72;nan;101576.44;5042906;28;20044;-77
2022/04/18 04:12:05;;;;;;;13.70;6.60;;;;;;;-1.72;nan;101579.03;5045286;28;20040;-76
2022/04/18 04:14:33;;;;;;;9.07;6.03;;;;;;;-1.77;nan;101575.34;5047455;28;20045;-76
2022/04/18 04:17:00;;;;;;;11.20;6.50;;;;;;;-1.88;nan;101588.66;5048167;22;20047;-77
2022/04/18 04:19:27;;;;;;;10.43;6.67;;;;;;;-1.84;nan;101583.69;5023383;28;20386;-79
2022/04/18 04:21:54;;;;;;;11.17;6.83;;;;;;;-1.80;nan;101576.91;5023429;28;20040;-80
2022/04/18 04:24:21;;;;;;;12.83;7.47;;;;;;;-1.83;nan;101585.44;5020736;28;20038;-80
2022/04/18 04:26:49;;;;;;;9.47;5.83;;;;;;;-1.79;nan;101574.41;4998682;28;20044;-79
2022/04/18 04:29:16;;;;;;;9.03;5.73;;;;;;;-1.68;nan;101579.16;4996945;28;20060;-77
2022/04/18 04:31:43;;;;;;;8.50;5.60;;;;;;;-1.62;nan;101576.84;5014187;28;20050;-78
2022/04/18 04:34:12;;;;;;;10.97;6.23;;;;;;;-1.66;nan;101575.84;5012995;28;20041;-79
2022/04/18 04:36:40;;;;;;;11.03;5.53;;;;;;;-1.65;nan;101579.31;5018708;28;20038;-80
2022/04/18 04:39:07;;;;;;;11.70;5.97;;;;;;;-1.54;nan;101568.56;5013287;28;20475;-77
2022/04/18 04:41:35;;;;;;;8.97;5.83;;;;;;;-1.53;nan;101570.34;5013047;28;20097;-77
2022/04/18 04:44:03;;;;;;;8.60;5.77;;;;;;;-1.55;nan;101568.50;5014460;28;20149;-79
2022/04/18 04:46:29;;;;;;;10.07;5.73;;;;;;;-1.61;nan;101571.72;5020791;28;20049;-80
2022/04/18 04:48:56;;;;;;;9.00;5.93;;;;;;;-1.72;nan;101568.66;5002783;28;20068;-78
2022/04/18 04:51:23;;;;;;;10.60;5.67;;;;;;;-1.76;nan;101561.59;5014887;28;20041;-80
2022/04/18 04:53:50;;;;;;;8.83;6.00;;;;;;;-1.64;nan;101566.41;5002585;28;20515;-77
2022/04/18 04:56:17;;;;;;;10.50;7.00;;;;;;;-1.53;nan;101559.09;5016935;28;20034;-79
2022/04/18 04:58:44;;;;;;;7.90;5.50;;;;;;;-1.50;nan;101562.72;5008634;28;20529;-80
2022/04/18 05:01:11;;;;;;;10.97;6.80;;;;;;;-1.46;nan;101555.94;4993785;28;20046;-79
2022/04/18 05:03:38;;;;;;;9.33;6.27;;;;;;;-1.42;nan;101552.69;5011478;28;20034;-79
2022/04/18 05:06:07;;;;;;;11.57;6.97;;;;;;;-1.45;nan;101557.72;5015232;28;20044;-79
2022/04/18 05:08:34;;;;;;;9.70;6.30;;;;;;;-1.40;nan;101557.91;5013658;28;20044;-80
2022/04/18 05:11:01;;;;;;;11.40;6.67;;;;;;;-1.35;nan;101548.63;5003115;28;20115;-77
2022/04/18 05:13:28;;;;;;;7.67;5.87;;;;;;;-1.28;nan;101548.06;4977322;28;20037;-79
2022/04/18 05:15:55;;;;;;;11.13;6.87;;;;;;;-1.15;nan;101559.00;5017960;28;20038;-78
2022/04/18 05:18:22;;;;;;;11.20;6.80;;;;;;;-1.18;nan;101555.38;5004651;28;20038;-79
2022/04/18 05:20:49;;;;;;;11.67;6.57;;;;;;;-1.18;nan;101548.53;5018051;28;20536;-80
2022/04/18 05:23:17;;;;;;;8.87;6.50;;;;;;;-1.15;nan;101551.22;4993524;28;20384;-78
2022/04/18 05:25:44;;;;;;;10.57;6.37;;;;;;;-1.13;nan;101554.75;5026759;28;20038;-79
2022/04/18 05:28:11;;;;;;;10.57;6.23;;;;;;;-1.07;nan;101561.91;4991909;28;20700;-79
2022/04/18 05:30:39;;;;;;;9.33;6.40;;;;;;;-0.98;nan;101553.63;5018545;28;20060;-79
2022/04/18 05:33:07;;;;;;;10.57;6.77;;;;;;;-0.90;nan;101560.00;4991222;28;20044;-78
2022/04/18 05:35:34;;;;;;;9.33;6.30;;;;;;;-0.83;nan;101559.44;5012534;28;20105;-77
2022/04/18 05:38:01;;;;;;;9.20;7.40;;;;;;;-0.69;nan;101552.19;5018145;28;20036;-79
2022/04/18 05:40:28;;;;;;;9.17;6.50;;;;;;;-0.57;nan;101555.25;5012594;28;20042;-77
2022/04/18 05:42:55;;;;;;;12.13;6.17;;;;;;;-0.49;nan;101550.38;5019737;28;20025;-78
2022/04/18 05:45:22;;;;;;;8.63;5.73;;;;;;;-0.27;nan;101547.75;5013512;28;20044;-79
2022/04/18 05:47:49;;;;;;;9.03;6.63;;;;;;;0.01;nan;101546.19;5017480;28;20040;-80
2022/04/18 05:50:16;;;;;;;6.77;5.77;;;;;;;0.21;nan;101553.84;4998520;28;20046;-77
2022/04/18 05:52:43;;;;;;;8.33;5.37;;;;;;;0.14;nan;101550.97;5017556;28;20125;-79
2022/04/18 05:55:10;;;;;;;11.33;6.03;;;;;;;0.13;nan;101557.00;5009286;28;20048;-80
2022/04/18 05:57:37;;;;;;;9.27;5.70;;;;;;;-0.04;nan;101554.69;4992135;28;20065;-80
2022/04/18 06:00:05;;;;;;;7.13;5.20;;;;;;;-0.07;nan;101544.19;4996732;28;20060;-78
2022/04/18 06:02:32;;;;;;;7.53;4.67;;;;;;;-0.03;nan;101546.06;5011859;28;20054;-81
2022/04/18 06:05:04;;;;;;;8.47;5.30;;;;;;;0.01;nan;101552.25;4990241;28;20042;-78
2022/04/18 06:07:31;;;;;;;8.93;6.00;;;;;;;0.13;nan;101552.69;5016654;28;20751;-79
2022/04/18 06:09:58;;;;;;;7.40;5.40;;;;;;;0.68;nan;101553.75;4982114;28;20049;-81
2022/04/18 06:12:25;;;;;;;9.93;5.30;;;;;;;1.31;nan;101551.47;5012391;28;20490;-79
2022/04/18 06:14:52;;;;;;;8.07;5.33;;;;;;;1.56;nan;101558.31;4979466;28;20038;-81
2022/04/18 06:17:19;;;;;;;7.90;5.53;;;;;;;1.54;nan;101554.78;5012636;28;20053;-79
2022/04/18 06:19:46;;;;;;;9.07;5.43;;;;;;;1.42;nan;101557.88;5013440;28;20072;-83
2022/04/18 06:22:13;;;;;;;8.63;5.90;;;;;;;1.29;nan;101545.34;4984082;28;20045;-78
2022/04/18 06:24:40;;;;;;;8.17;5.43;;;;;;;1.57;nan;101553.16;4997027;28;20101;-82
2022/04/18 06:27:07;;;;;;;10.03;5.37;;;;;;;1.76;nan;101551.09;5000064;28;20113;-79
2022/04/18 06:29:34;;;;;;;8.93;5.60;;;;;;;2.40;nan;101550.31;5010634;28;20515;-82
2022/04/18 06:32:01;;;;;;;8.20;5.27;;;;;;;4.11;nan;101543.88;4998984;28;20113;-79
2022/04/18 06:34:30;;;;;;;8.33;4.97;;;;;;;5.53;nan;101539.34;5009442;28;20490;-82
2022/04/18 06:36:57;;;;;;;8.70;5.00;;;;;;;7.10;nan;101531.47;5001172;28;20034;-83
2022/04/18 06:39:24;;;;;;;8.10;6.57;;;;;;;8.05;nan;101532.88;4994388;28;20040;-83
2022/04/18 06:41:51;;;;;;;10.03;6.40;;;;;;;9.11;nan;101523.44;5006056;28;20045;-83
2022/04/18 06:44:18;;;;;;;12.52;7.65;;;;;;;9.54;nan;101518.97;5013168;28;20038;-80
2022/04/18 06:46:45;;;;;;;10.45;6.63;;;;;;;10.20;nan;101510.81;4997677;28;20030;-83
2022/04/18 06:49:12;;;;;;;10.48;6.78;;;;;;;10.59;nan;101517.63;4989836;28;20042;-80
2022/04/18 06:51:38;;;;;;;11.30;7.97;;;;;;;10.64;nan;101521.13;4990425;28;20042;-80
2022/04/18 06:54:05;;;;;;;9.50;6.93;;;;;;;10.86;nan;101520.09;4994215;28;20229;-83
2022/04/18 06:59:18;;;;;;;13.77;7.60;;;;;;;10.86;nan;101512.16;4997498;28;20060;-80
2022/04/18 07:01:45;;;;;;;10.35;7.30;;;;;;;10.92;nan;101516.50;4990977;28;20040;-83
2022/04/18 07:04:13;;;;;;;12.25;7.13;;;;;;;11.19;nan;101510.09;5000812;28;20030;-83
2022/04/18 07:06:40;;;;;;;14.55;8.20;;;;;;;11.23;nan;101522.41;4978640;28;20037;-80
2022/04/18 07:09:08;;;;;;;14.18;8.63;;;;;;;11.33;nan;101510.84;5011221;28;20034;-80
2022/04/18 07:11:35;;;;;;;12.60;8.50;;;;;;;11.36;nan;101515.25;5012419;28;20052;-83
2022/04/18 07:14:02;;;;;;;12.75;7.57;;;;;;;11.50;nan;101506.25;4996416;28;20368;-83
2022/04/18 07:16:30;;;;;;;11.95;6.80;;;;;;;11.45;nan;101512.50;4983980;28;20039;-79
2022/04/18 07:19:00;;;;;;;14.40;7.75;;;;;;;11.58;nan;101516.75;5012380;28;20044;-78
2022/04/18 07:21:27;;;;;;;10.48;6.90;;;;;;;10.82;nan;101520.09;4994520;28;20046;-80
2022/04/18 07:23:54;;;;;;;11.15;7.22;;;;;;;10.67;nan;101518.44;4995853;28;20536;-79
2022/04/18 07:26:21;;;;;;;10.27;7.03;;;;;;;10.82;nan;101520.09;4977908;28;20136;-79
2022/04/18 07:28:48;;;;;;;10.43;5.68;;;;;;;10.93;nan;101512.97;5008299;28;20046;-80
2022/04/18 07:31:15;;;;;;;10.98;6.47;;;;;;;10.73;nan;101517.53;5011670;28;20042;-80
2022/04/18 07:33:42;;;;;;;16.70;12.02;;;;;;;10.95;nan;101511.19;4993728;28;20373;-81
2022/04/18 07:36:09;;;;;;;9.63;6.05;;;;;;;11.19;nan;101510.09;5012959;28;20038;-80
2022/04/18 07:38:48;;;;;;;10.55;6.65;;;;;;;11.21;nan;101517.13;4995724;28;20048;-80
2022/04/18 07:41:22;;;;;;;8.73;6.30;;;;;;;11.22;nan;101507.44;5010309;28;20450;-79
2022/04/18 07:43:49;;;;;;;9.88;6.70;;;;;;;11.37;nan;101498.47;5011307;28;20040;-81
2022/04/18 07:46:16;;;;;;;8.52;5.43;;;;;;;11.47;nan;101501.00;5009008;28;20052;-78
2022/04/18 07:48:45;;;;;;;9.63;5.63;;;;;;;11.42;nan;101501.91;5007936;28;20056;-83
2022/04/18 07:53:59;;;;;;;10.48;5.07;;;;;;;11.25;nan;101500.31;5006641;28;20038;-79
2022/04/18 07:56:29;;;;;;;9.07;5.65;;;;;;;11.26;nan;101501.19;5008883;28;20410;-79
2022/04/18 07:58:56;;;;;;;8.48;5.07;;;;;;;11.30;nan;101496.78;4992285;28;20038;-80
2022/04/18 08:01:28;;;;;;;8.10;5.22;;;;;;;11.43;nan;101493.09;4992038;28;20038;-80
2022/04/18 08:03:57;;;;;;;7.50;5.57;;;;;;;11.37;nan;101494.06;4976828;28;20038;-82
2022/04/18 08:06:24;;;;;;;10.32;5.40;;;;;;;10.97;nan;101493.53;4995442;28;20033;-82
2022/04/18 08:08:51;;;;;;;8.65;5.63;;;;;;;11.15;nan;101492.50;4989627;28;20065;-81
2022/04/18 08:11:18;;;;;;;8.48;5.65;;;;;;;11.22;nan;101495.06;4994153;28;20034;-81
2022/04/18 08:13:47;;;;;;;7.63;4.55;;;;;;;11.11;nan;101494.31;5008536;28;20097;-80
2022/04/18 08:16:14;;;;;;;7.22;5.47;;;;;;;11.25;nan;101487.09;5005750;28;20037;-79
2022/04/18 08:18:45;;;;;;;6.50;4.38;;;;;;;11.30;nan;101487.06;4991832;28;20053;-77
2022/04/18 08:21:14;;;;;;;5.95;3.90;;;;;;;11.17;nan;101483.66;5015476;28;20501;-81
2022/04/18 08:23:42;;;;;;;8.68;5.90;;;;;;;11.06;nan;101484.66;4995122;28;20042;-83
2022/04/18 08:26:10;;;;;;;7.90;4.63;;;;;;;11.39;nan;101486.09;4998772;28;20060;-82
2022/04/18 08:28:38;;;;;;;8.23;5.45;;;;;;;11.52;nan;101479.78;4994389;28;20048;-80
2022/04/18 08:31:09;;;;;;;7.18;5.32;;;;;;;11.41;nan;101469.28;5008725;28;20045;-80
2022/04/18 08:33:36;;;;;;;6.65;4.70;;;;;;;11.67;nan;101478.72;4992203;28;20041;-79
2022/04/18 08:36:03;;;;;;;5.18;3.55;;;;;;;11.65;nan;101477.84;5010520;28;20034;-80
2022/04/18 08:38:30;;;;;;;7.50;3.67;;;;;;;11.41;nan;101469.28;5007540;28;20400;-81
2022/04/18 08:41:01;;;;;;;5.95;3.90;;;;;;;11.48;nan;101468.34;5011485;28;20570;-81
2022/04/18 08:43:27;;;;;;;3.95;3.08;;;;;;;11.53;nan;101471.81;5001668;28;20132;-79
2022/04/18 08:45:55;;;;;;;5.97;3.22;;;;;;;11.17;nan;101470.41;5010352;28;20498;-80
2022/04/18 08:53:56;;;;;;;3.92;2.95;;;;;;;11.96;nan;101470.44;5007887;28;20046;-80
2022/04/18 08:56:25;;;;;;;5.15;3.08;;;;;;;12.29;nan;101459.38;5002637;28;20440;-81
2022/04/18 08:58:52;;;;;;;6.80;3.45;;;;;;;12.15;nan;101458.69;5026075;28;20033;-80
2022/04/18 09:01:19;;;;;;;5.13;3.28;;;;;;;12.58;nan;101452.75;5012939;28;20113;-80
2022/04/18 09:03:46;;;;;;;5.15;3.28;;;;;;;12.79;nan;101451.53;5005923;28;20120;-80
2022/04/18 09:06:13;;;;;;;5.20;3.28;;;;;;;12.48;nan;101464.41;5017589;28;20089;-80
2022/04/18 09:08:51;;;;;;;4.88;3.63;;;;;;;12.85;nan;101443.44;5013428;28;20034;-79
2022/04/18 09:11:32;;;;;;;4.43;3.28;;;;;;;13.14;nan;101440.28;5016169;28;20053;-80
2022/04/18 09:14:07;;;;;;;3.10;2.42;;;;;;;13.51;nan;101432.50;5003198;28;20045;-82
2022/04/18 09:16:35;;;;;;;4.82;2.90;;;;;;;13.46;nan;101440.59;5008252;28;20138;-80
2022/04/18 09:19:20;;;;;;;4.93;2.80;;;;;;;13.44;nan;101431.75;5021522;28;20029;-81
2022/04/18 09:21:57;;;;;;;2.90;1.92;;;;;;;13.37;nan;101431.91;5020249;28;20586;-81
2022/04/18 09:24:37;;;;;;;3.10;2.10;;;;;;;13.79;nan;101427.53;5005785;28;20501;-80
2022/04/18 09:27:07;;;;;;;3.65;2.15;;;;;;;13.79;nan;101425.75;5018120;28;20034;-80
2022/04/18 09:29:38;;;;;;;5.57;2.95;;;;;;;13.24;nan;101426.84;5013622;28;20042;-80
2022/04/18 09:32:13;;;;;;;5.05;3.30;;;;;;;13.65;nan;101422.50;4999405;28;20066;-80
2022/04/18 09:34:40;;;;;;;;;;;;;;;13.74;nan;101422.28;5008406;28;20041;-80
2022/04/18 09:37:11;;;;;;;4.53;2.70;;;;;;;14.08;nan;101414.44;5016743;28;19927;-80
2022/04/18 09:39:42;;;;;;;4.40;2.90;;;;;;;13.78;nan;101407.16;5010264;28;20038;-79
2022/04/18 09:42:10;;;;;;;5.10;2.80;;;;;;;13.95;nan;101407.66;5013302;28;20038;-81
2022/04/18 09:44:38;;;;;;;4.35;3.22;;;;;;;14.30;nan;101408.66;5011836;28;20030;-80
2022/04/18 09:47:05;;;;;;;8.07;3.40;;;;;;;14.48;nan;101405.56;5013465;28;20045;-79
2022/04/18 09:49:39;;;;;;;5.63;3.63;;;;;;;14.41;nan;101395.97;4982745;28;20049;-80
2022/04/18 09:52:08;;;;;;;4.30;3.53;;;;;;;14.60;nan;101383.97;5013159;28;20050;-81
2022/04/18 09:54:35;;;;;;;4.13;2.83;;;;;;;14.22;nan;101384.03;5000923;28;20114;-79
2022/04/18 09:57:06;;;;;;;3.95;2.42;;;;;;;14.76;nan;101384.47;5013159;28;20048;-80
2022/04/18 09:59:33;;;;;;;5.72;3.45;;;;;;;14.59;nan;101392.88;5011783;28;20042;-80
2022/04/18 10:02:00;;;;;;;4.35;3.03;;;;;;;14.88;nan;101383.25;4996049;28;20050;-80
2022/04/18 10:04:28;;;;;;;3.60;2.97;;;;;;;15.15;nan;101377.19;4995590;28;20049;-80
2022/04/18 10:06:59;;;;;;;3.83;2.58;;;;;;;15.51;nan;101374.38;5012789;28;20037;-80
2022/04/18 10:09:30;;;;;;;4.10;2.92;;;;;;;15.37;nan;101376.56;5011229;28;20530;-81
2022/04/18 10:11:57;;;;;;;5.43;3.45;;;;;;;15.58;nan;101372.41;5009670;28;20045;-82
2022/04/18 10:14:24;;;;;;;4.13;2.63;;;;;;;15.21;nan;101374.34;5013116;28;20529;-82
2022/04/18 10:16:52;;;;;;;4.00;2.95;;;;;;;13.95;nan;101373.13;5016954;28;20394;-81
2022/04/18 10:19:52;;;;;;;5.10;3.70;;;;;;;14.82;nan;101370.13;5038179;23;20048;-77
2022/04/18 10:22:38;;;;;;;5.07;3.00;;;;;;;14.91;nan;101369.88;5056794;28;20041;-78
2022/04/18 10:25:13;;;;;;;4.13;2.88;;;;;;;15.05;nan;101370.38;5049838;28;20119;-78
2022/04/18 10:27:56;;;;;;;3.58;2.53;;;;;;;15.02;nan;101367.78;5026138;28;20043;-74
2022/04/18 10:30:23;;;;;;;4.22;2.50;;;;;;;15.44;nan;101359.50;5043093;28;20040;-74
2022/04/18 10:32:51;;;;;;;4.65;3.20;;;;;;;15.49;nan;101358.47;5009529;28;20396;-74
2022/04/18 10:35:21;;;;;;;3.35;2.38;;;;;;;14.53;nan;101361.09;5042702;28;20037;-77
2022/04/18 10:37:53;;;;;;;4.55;2.63;;;;;;;14.74;nan;101362.34;5022820;28;20041;-75
2022/04/18 10:40:22;;;;;;;4.88;2.80;;;;;;;14.71;nan;101362.41;5027331;28;20510;-74
2022/04/18 10:42:50;;;;;;;8.77;2.88;;;;;;;14.66;nan;101366.13;5027224;28;20408;-77
2022/04/18 10:45:16;;;;;;;4.82;2.97;;;;;;;14.91;nan;101357.44;5027123;28;20044;-74
2022/04/18 10:47:56;;;;;;;4.05;1.92;;;;;;;15.05;nan;101357.09;5047713;28;20051;-76
2022/04/18 10:50:41;;;;;;;3.33;2.58;;;;;;;15.27;nan;101338.69;5039795;28;20056;-74
2022/04/18 10:53:20;;;;;;;4.05;2.55;;;;;;;15.46;nan;101341.69;5030077;28;20035;-77
2022/04/18 10:55:50;;;;;;;4.45;2.95;;;;;;;15.56;nan;101347.63;5012169;28;20186;-75
2022/04/18 10:58:20;;;;;;;3.28;2.30;;;;;;;14.90;nan;101344.19;5030621;28;20041;-76
2022/04/18 11:00:54;;;;;;;2.55;2.33;;;;;;;14.87;nan;101341.59;5026642;28;20037;-76
2022/04/18 11:03:43;;;;;;;5.40;3.10;;;;;;;14.70;nan;101344.72;5016764;28;20040;-78
2022/04/18 11:06:16;;;;;;;6.38;3.20;;;;;;;14.75;nan;101350.78;5041282;28;20049;-77
2022/04/18 11:09:19;;;;;;;3.65;2.63;;;;;;;15.44;nan;101344.41;5043074;28;20436;-75
2022/04/18 11:12:01;;;;;;;5.18;3.17;;;;;;;14.99;nan;101335.09;4938790;28;20407;-77
2022/04/18 11:14:31;;;;;;;5.15;2.90;;;;;;;15.31;nan;101331.50;5009418;28;20136;-77
2022/04/18 11:17:00;;;;;;;2.67;2.20;;;;;;;15.62;nan;101329.69;5016265;28;20045;-76
2022/04/18 11:19:29;;;;;;;3.25;2.10;;;;;;;15.30;nan;101330.63;4995947;28;20067;-77
2022/04/18 11:21:57;;;;;;;5.97;2.90;;;;;;;15.47;nan;101317.69;5029596;28;20051;-76
2022/04/18 11:24:43;;;;;;;4.18;2.95;;;;;;;15.59;nan;101323.56;5039945;28;20033;-76
2022/04/18 11:27:12;;;;;;;3.33;2.70;;;;;;;15.73;nan;101310.72;5030625;28;20036;-77
2022/04/18 11:29:44;;;;;;;4.53;2.63;;;;;;;16.04;nan;101316.78;5011456;28;20049;-77
2022/04/18 11:32:16;;;;;;;5.00;3.03;;;;;;;15.69;nan;101307.28;5017451;28;20131;-77
2022/04/18 11:34:44;;;;;;;2.83;2.00;;;;;;;15.67;nan;101309.13;5025514;28;20498;-76
2022/04/18 11:37:13;;;;;;;4.55;2.65;;;;;;;15.87;nan;101310.28;5026555;28;20039;-77
2022/04/18 11:39:45;;;;;;;2.60;2.03;;;;;;;16.08;nan;101298.94;5022401;28;20033;-76
2022/04/18 11:42:19;;;;;;;3.83;2.13;;;;;;;16.05;nan;101299.00;5031075;28;20036;-76
2022/04/18 11:44:48;;;;;;;4.22;2.08;;;;;;;16.07;nan;101285.66;5012522;28;20090;-76
2022/04/18 11:47:19;;;;;;;2.72;2.10;;;;;;;16.17;nan;101285.28;5027949;28;20036;-76
2022/04/18 11:49:46;;;;;;;3.72;2.05;;;;;;;16.22;nan;101288.66;5008750;28;20040;-75
2022/04/18 11:52:21;;;;;;;2.22;1.58;;;;;;;16.24;nan;101284.16;5015878;28;20044;-77
2022/04/18 11:54:53;;;;;;;2.42;1.80;;;;;;;15.73;nan;101290.28;5029876;28;20033;-77
2022/04/18 11:57:20;;;;;;;2.35;1.65;;;;;;;15.99;nan;101288.56;5001747;28;20041;-77
2022/04/18 11:59:47;;;;;;;2.45;1.60;;;;;;;15.88;nan;101285.34;5010358;28;20410;-74
2022/04/18 12:07:55;;;;;;;2.10;1.88;;;;;;;16.14;nan;101274.72;5015289;28;20045;-80
2022/04/18 12:10:24;;;;;;;2.38;1.70;;;;;;;16.25;nan;101266.38;5012020;28;20419;-78
2022/04/18 12:12:52;;;;;;;3.20;2.33;;;;;;;16.06;nan;101274.13;5028907;28;20047;-78